createdAt,value
2019-06-20T00:00:10.626Z,4.78
2019-06-20T00:02:36.561Z,3.98
2019-06-20T00:05:04.101Z,3.77
2019-06-20T00:07:30.077Z,3.98
2019-06-20T00:09:56.279Z,3.70
2019-06-20T00:12:22.123Z,3.52
2019-06-20T00:14:48.117Z,3.15
2019-06-20T00:17:14.064Z,2.80
2019-06-20T00:19:40.432Z,3.05
2019-06-20T00:22:06.658Z,3.70
2019-06-20T00:24:33.089Z,2.77
2019-06-20T00:26:58.924Z,4.47
2019-06-20T00:29:24.931Z,2.90
2019-06-20T00:31:51.169Z,3.15
2019-06-20T00:34:17.018Z,3.20
2019-06-20T00:36:43.041Z,3.62
2019-06-20T00:39:08.972Z,3.20
2019-06-20T00:41:35.002Z,3.75
2019-06-20T00:44:01.263Z,3.40
2019-06-20T00:46:27.083Z,3.17
2019-06-20T00:48:53.017Z,3.20
2019-06-20T00:51:19.010Z,3.10
2019-06-20T00:53:45.457Z,3.20
2019-06-20T00:56:11.649Z,3.10
2019-06-20T00:58:37.661Z,3.35
2019-06-20T01:01:04.127Z,3.45
2019-06-20T01:03:29.975Z,2.77
2019-06-20T01:05:55.858Z,3.20
2019-06-20T01:08:22.258Z,3.00
2019-06-20T01:10:48.394Z,2.87
2019-06-20T01:13:14.649Z,3.17
2019-06-20T01:15:40.616Z,3.83
2019-06-20T01:18:07.143Z,3.37
2019-06-20T01:20:33.058Z,3.42
2019-06-20T01:22:59.603Z,3.92
2019-06-20T01:25:27.873Z,3.72
2019-06-20T01:27:53.879Z,3.75
2019-06-20T01:30:19.724Z,3.95
2019-06-20T01:32:46.153Z,3.75
2019-06-20T01:35:12.436Z,4.37
2019-06-20T01:37:38.526Z,4.70
2019-06-20T01:40:04.930Z,4.33
2019-06-20T01:42:30.916Z,4.10
2019-06-20T01:44:56.762Z,3.90
2019-06-20T01:47:22.682Z,4.45
2019-06-20T01:49:48.995Z,4.67
2019-06-20T01:52:15.224Z,4.80
2019-06-20T01:54:41.450Z,4.30
2019-06-20T01:57:07.338Z,4.65
2019-06-20T01:59:33.273Z,4.72
2019-06-20T02:01:59.232Z,4.92
2019-06-20T02:04:25.232Z,5.33
2019-06-20T02:06:51.424Z,4.83
2019-06-20T02:09:17.690Z,5.53
2019-06-20T02:11:43.674Z,5.37
2019-06-20T02:14:09.914Z,6.25
2019-06-20T02:16:35.728Z,5.85
2019-06-20T02:19:02.378Z,5.58
2019-06-20T02:21:28.203Z,5.95
2019-06-20T02:23:54.138Z,6.70
2019-06-20T02:26:20.542Z,7.17
2019-06-20T02:28:46.478Z,7.00
2019-06-20T02:31:12.316Z,6.95
2019-06-20T02:33:38.298Z,6.90
2019-06-20T02:36:04.224Z,6.90
2019-06-20T02:38:30.169Z,7.70
2019-06-20T02:40:56.300Z,9.10
2019-06-20T02:43:22.181Z,9.50
2019-06-20T02:45:48.127Z,10.53
2019-06-20T02:48:14.310Z,10.82
2019-06-20T02:50:40.538Z,12.25
2019-06-20T02:53:06.800Z,13.08
2019-06-20T02:55:33.437Z,12.43
2019-06-20T02:57:59.290Z,13.28
2019-06-20T03:00:39.240Z,14.53
2019-06-20T03:03:05.654Z,13.78
2019-06-20T03:05:31.395Z,16.12
2019-06-20T03:07:57.271Z,16.12
2019-06-20T03:10:23.278Z,16.23
2019-06-20T03:12:49.117Z,16.80
2019-06-20T03:15:15.356Z,17.70
2019-06-20T03:17:41.557Z,17.48
2019-06-20T03:20:08.958Z,17.75
2019-06-20T03:22:34.845Z,19.07
2019-06-20T03:25:00.694Z,18.87
2019-06-20T03:27:26.630Z,20.12
2019-06-20T03:29:52.627Z,19.27
2019-06-20T03:32:18.559Z,22.37
2019-06-20T03:34:44.480Z,20.25
2019-06-20T03:37:10.478Z,21.45
2019-06-20T03:39:36.775Z,21.48
2019-06-20T03:42:02.723Z,22.35
2019-06-20T03:44:29.106Z,22.27
2019-06-20T03:46:55.198Z,22.95
2019-06-20T03:49:21.413Z,21.57
2019-06-20T03:51:47.412Z,21.23
2019-06-20T03:54:14.050Z,21.87
2019-06-20T03:56:39.895Z,22.58
2019-06-20T03:59:06.507Z,20.75
2019-06-20T04:01:32.444Z,22.10
2019-06-20T04:03:58.410Z,22.48
2019-06-20T04:06:24.422Z,21.65
2019-06-20T04:08:50.613Z,22.48
2019-06-20T04:11:16.452Z,21.55
2019-06-20T04:13:42.569Z,22.22
2019-06-20T04:16:08.901Z,22.45
2019-06-20T04:18:35.117Z,19.17
2019-06-20T04:21:01.010Z,19.05
2019-06-20T04:23:27.574Z,20.20
2019-06-20T04:25:53.706Z,19.87
2019-06-20T04:28:20.030Z,20.48
2019-06-20T04:30:45.876Z,20.57
2019-06-20T04:33:13.309Z,20.65
2019-06-20T04:35:39.557Z,20.35
2019-06-20T04:38:05.675Z,20.77
2019-06-20T04:40:31.506Z,21.00
2019-06-20T04:42:57.483Z,21.12
2019-06-20T04:45:42.312Z,22.30
2019-06-20T04:48:08.722Z,20.23
2019-06-20T04:50:34.952Z,21.05
2019-06-20T04:53:00.780Z,21.27
2019-06-20T04:55:26.831Z,21.00
2019-06-20T04:57:53.231Z,20.37
2019-06-20T05:00:19.154Z,20.15
2019-06-20T05:02:45.692Z,19.87
2019-06-20T05:05:11.890Z,19.17
2019-06-20T05:07:37.725Z,18.42
2019-06-20T05:10:04.963Z,17.70
2019-06-20T05:12:31.463Z,18.37
2019-06-20T05:14:57.935Z,17.82
2019-06-20T05:17:23.821Z,18.32
2019-06-20T05:19:49.673Z,15.72
2019-06-20T05:22:16.122Z,16.10
2019-06-20T05:24:42.163Z,16.73
2019-06-20T05:27:07.999Z,16.37
2019-06-20T05:29:34.566Z,16.95
2019-06-20T05:32:00.432Z,14.90
2019-06-20T05:34:27.023Z,14.30
2019-06-20T05:36:52.859Z,15.08
2019-06-20T05:39:18.765Z,14.18
2019-06-20T05:41:44.734Z,15.05
2019-06-20T05:44:10.746Z,13.98
2019-06-20T05:46:36.719Z,12.88
2019-06-20T05:49:02.668Z,12.53
2019-06-20T05:51:28.936Z,12.63
2019-06-20T05:53:54.835Z,12.37
2019-06-20T05:56:21.397Z,13.00
2019-06-20T05:58:47.232Z,12.33
2019-06-20T06:01:13.854Z,12.53
2019-06-20T06:03:39.709Z,11.95
2019-06-20T06:06:05.642Z,10.55
2019-06-20T06:08:31.645Z,10.75
2019-06-20T06:10:57.513Z,10.65
2019-06-20T06:13:23.621Z,11.10
2019-06-20T06:15:49.592Z,11.88
2019-06-20T06:18:16.053Z,10.95
2019-06-20T06:20:44.951Z,10.63
2019-06-20T06:23:10.848Z,10.65
2019-06-20T06:25:37.079Z,11.43
2019-06-20T06:28:03.298Z,12.45
2019-06-20T06:30:29.401Z,11.25
2019-06-20T06:32:55.230Z,11.35
2019-06-20T06:35:21.167Z,11.83
2019-06-20T06:37:47.424Z,11.25
2019-06-20T06:40:13.827Z,11.78
2019-06-20T06:42:39.681Z,11.88
2019-06-20T06:45:06.264Z,12.15
2019-06-20T06:47:32.489Z,11.35
2019-06-20T06:49:58.941Z,12.35
2019-06-20T06:52:24.835Z,11.33
2019-06-20T06:54:50.998Z,12.18
2019-06-20T06:57:16.936Z,11.78
2019-06-20T06:59:42.932Z,11.33
2019-06-20T07:02:09.273Z,10.75
2019-06-20T07:04:35.496Z,10.78
2019-06-20T07:07:01.747Z,11.12
2019-06-20T07:09:27.595Z,11.88
2019-06-20T07:11:53.579Z,11.12
2019-06-20T07:14:19.617Z,10.98
2019-06-20T07:16:59.430Z,9.85
2019-06-20T07:19:13.717Z,10.15
2019-06-20T07:21:39.704Z,10.45
2019-06-20T07:24:05.609Z,10.20
2019-06-20T07:26:31.551Z,9.98
2019-06-20T07:28:57.553Z,10.30
2019-06-20T07:31:24.022Z,10.05
2019-06-20T07:33:50.263Z,9.60
2019-06-20T07:36:16.431Z,10.45
2019-06-20T07:38:42.267Z,10.65
2019-06-20T07:41:08.374Z,9.98
2019-06-20T07:43:34.265Z,10.35
2019-06-20T07:46:03.029Z,9.85
2019-06-20T07:48:27.994Z,9.75
2019-06-20T07:50:54.004Z,9.73
2019-06-20T07:53:19.850Z,9.40
2019-06-20T07:55:46.329Z,8.03
2019-06-20T07:58:12.564Z,7.72
2019-06-20T08:00:38.804Z,7.80
2019-06-20T08:03:04.747Z,6.92
2019-06-20T08:05:30.648Z,7.10
2019-06-20T08:07:56.496Z,7.95
2019-06-20T08:10:22.633Z,7.85
2019-06-20T08:12:48.919Z,7.03
2019-06-20T08:15:16.111Z,7.37
2019-06-20T08:17:42.064Z,8.43
2019-06-20T08:20:09.246Z,6.80
2019-06-20T08:22:35.199Z,6.35
2019-06-20T08:25:01.188Z,7.85
2019-06-20T08:27:45.570Z,6.83
2019-06-20T08:30:11.976Z,6.08
2019-06-20T08:32:38.223Z,5.83
2019-06-20T08:35:06.441Z,6.50
2019-06-20T08:37:32.646Z,6.00
2019-06-20T08:39:59.933Z,6.30
2019-06-20T08:42:26.022Z,6.37
2019-06-20T08:44:51.917Z,6.60
2019-06-20T08:47:17.829Z,5.42
2019-06-20T08:49:43.736Z,5.33
2019-06-20T08:52:09.568Z,6.20
2019-06-20T08:54:35.417Z,5.35
2019-06-20T08:57:03.513Z,5.17
2019-06-20T08:59:30.003Z,5.72
2019-06-20T09:01:58.061Z,6.10
2019-06-20T09:04:23.544Z,5.80
2019-06-20T09:06:50.222Z,6.03
2019-06-20T09:09:16.538Z,5.37
2019-06-20T09:11:42.918Z,5.25
2019-06-20T09:14:08.766Z,5.08
2019-06-20T09:16:35.053Z,5.12
2019-06-20T09:19:02.540Z,5.00
2019-06-20T09:21:28.542Z,4.80
2019-06-20T09:23:55.699Z,5.05
2019-06-20T09:26:21.990Z,5.20
2019-06-20T09:28:48.442Z,5.47
2019-06-20T09:31:15.089Z,5.37
2019-06-20T09:33:41.727Z,6.15
2019-06-20T09:36:07.682Z,5.62
2019-06-20T09:38:33.540Z,4.95
2019-06-20T09:40:59.754Z,4.92
2019-06-20T09:43:27.886Z,5.20
2019-06-20T09:45:54.520Z,4.80
2019-06-20T09:48:21.152Z,4.95
2019-06-20T09:50:49.394Z,4.85
2019-06-20T09:53:15.262Z,5.70
2019-06-20T09:55:42.048Z,4.80
2019-06-20T09:58:07.895Z,5.20
2019-06-20T10:00:35.290Z,3.95
2019-06-20T10:03:01.810Z,5.12
2019-06-20T10:05:28.196Z,4.60
2019-06-20T10:07:54.558Z,4.70
2019-06-20T10:10:22.786Z,4.55
2019-06-20T10:12:49.642Z,4.97
2019-06-20T10:15:20.581Z,4.40
2019-06-20T10:17:47.366Z,4.22
2019-06-20T10:20:14.379Z,4.05
2019-06-20T10:22:40.321Z,4.40
2019-06-20T10:25:06.460Z,4.33
2019-06-20T10:27:32.405Z,4.42
2019-06-20T10:30:10.635Z,4.42
2019-06-20T10:32:26.807Z,4.17
2019-06-20T10:34:53.041Z,4.10
2019-06-20T10:37:19.271Z,4.53
2019-06-20T10:39:46.109Z,4.60
2019-06-20T10:42:12.123Z,4.50
2019-06-20T10:44:38.334Z,4.10
2019-06-20T10:47:04.338Z,3.83
2019-06-20T10:49:30.165Z,4.12
2019-06-20T10:51:55.989Z,4.00
2019-06-20T10:54:22.467Z,3.87
2019-06-20T10:56:48.872Z,3.85
2019-06-20T10:59:15.338Z,4.72
2019-06-20T11:01:42.761Z,3.83
2019-06-20T11:04:09.722Z,3.42
2019-06-20T11:06:35.563Z,3.50
2019-06-20T11:09:02.027Z,3.65
2019-06-20T11:11:28.533Z,3.60
2019-06-20T11:13:54.478Z,4.28
2019-06-20T11:16:20.918Z,3.75
2019-06-20T11:18:48.728Z,3.42
2019-06-20T11:21:15.064Z,3.83
2019-06-20T11:23:45.320Z,3.55
2019-06-20T11:26:11.222Z,3.40
2019-06-20T11:28:39.262Z,3.25
2019-06-20T11:31:06.038Z,3.37
2019-06-20T11:33:32.053Z,3.15
2019-06-20T11:35:58.532Z,3.00
2019-06-20T11:38:25.642Z,3.02
2019-06-20T11:40:51.497Z,2.87
2019-06-20T11:43:19.094Z,3.20
2019-06-20T11:45:45.040Z,3.25
2019-06-20T11:48:10.978Z,3.80
2019-06-20T11:50:37.906Z,3.05
2019-06-20T11:53:04.261Z,3.40
2019-06-20T11:55:32.662Z,3.08
2019-06-20T11:57:59.566Z,3.00
2019-06-20T12:00:26.054Z,3.37
2019-06-20T12:02:52.471Z,3.77
2019-06-20T12:05:18.616Z,3.85
2019-06-20T12:07:45.641Z,4.00
2019-06-20T12:10:14.052Z,4.10
2019-06-20T12:12:41.010Z,3.80
2019-06-20T12:15:08.261Z,4.22
2019-06-20T12:17:34.794Z,4.30
2019-06-20T12:20:01.246Z,4.08
2019-06-20T12:22:27.168Z,4.65
2019-06-20T12:24:53.685Z,4.67
2019-06-20T12:27:19.535Z,4.40
2019-06-20T12:29:46.511Z,4.80
2019-06-20T12:32:12.556Z,4.87
2019-06-20T12:34:40.186Z,4.78
2019-06-20T12:37:06.477Z,5.12
2019-06-20T12:39:32.336Z,5.55
2019-06-20T12:41:58.319Z,4.85
2019-06-20T12:44:24.842Z,5.05
2019-06-20T12:46:50.701Z,5.40
2019-06-20T12:49:16.619Z,5.12
2019-06-20T12:51:42.696Z,5.00
2019-06-20T12:54:09.134Z,6.10
2019-06-20T12:56:35.492Z,6.10
2019-06-20T12:59:01.580Z,6.42
2019-06-20T13:01:36.755Z,7.62
2019-06-20T13:03:55.820Z,9.30
2019-06-20T13:06:21.684Z,11.43
2019-06-20T13:08:47.789Z,12.82
2019-06-20T13:11:14.028Z,13.55
2019-06-20T13:13:40.556Z,15.15
2019-06-20T13:16:06.583Z,12.95
2019-06-20T13:18:33.691Z,16.25
2019-06-20T13:20:59.849Z,18.35
2019-06-20T13:23:25.681Z,22.82
2019-06-20T13:25:51.634Z,19.12
2019-06-20T13:28:17.628Z,20.30
2019-06-20T13:30:47.407Z,26.85
2019-06-20T13:33:11.878Z,18.27
2019-06-20T13:35:39.949Z,23.22
2019-06-20T13:38:05.675Z,21.87
2019-06-20T13:40:31.910Z,22.87
2019-06-20T13:42:58.539Z,25.82
2019-06-20T13:45:25.081Z,28.40
2019-06-20T13:47:52.322Z,25.48
2019-06-20T13:50:18.678Z,24.32
2019-06-20T13:52:46.445Z,26.82
2019-06-20T13:55:13.817Z,24.35
2019-06-20T13:57:41.176Z,23.32
2019-06-20T14:00:08.750Z,19.60
2019-06-20T14:02:34.658Z,18.48
2019-06-20T14:05:00.652Z,18.40
2019-06-20T14:07:26.601Z,20.57
2019-06-20T14:09:52.781Z,17.65
2019-06-20T14:12:18.678Z,19.45
2019-06-20T14:14:45.747Z,19.75
2019-06-20T14:17:11.660Z,20.62
2019-06-20T14:19:37.917Z,26.70
2019-06-20T14:22:03.887Z,19.23
2019-06-20T14:24:30.230Z,23.60
2019-06-20T14:26:56.603Z,29.70
2019-06-20T14:29:22.832Z,14.75
2019-06-20T14:31:49.269Z,14.30
2019-06-20T14:34:15.393Z,14.38
2019-06-20T14:36:41.208Z,11.33
2019-06-20T14:39:07.139Z,12.05
2019-06-20T14:41:33.129Z,14.98
2019-06-20T14:43:59.614Z,12.53
2019-06-20T14:46:25.762Z,12.00
2019-06-20T14:48:51.646Z,10.82
2019-06-20T14:51:17.747Z,10.88
2019-06-20T14:53:44.387Z,10.55
2019-06-20T14:56:11.762Z,9.25
2019-06-20T14:58:37.986Z,11.70
2019-06-20T15:01:03.917Z,8.95
2019-06-20T15:03:29.912Z,9.43
2019-06-20T15:05:55.843Z,8.60
2019-06-20T15:08:21.801Z,8.25
2019-06-20T15:10:48.476Z,7.87
2019-06-20T15:13:15.600Z,8.40
2019-06-20T15:15:41.442Z,7.05
2019-06-20T15:18:07.444Z,6.70
2019-06-20T15:20:35.805Z,6.90
2019-06-20T15:23:01.144Z,5.70
2019-06-20T15:25:27.022Z,4.53
2019-06-20T15:27:55.066Z,3.55
2019-06-20T15:30:20.994Z,3.47
2019-06-20T15:33:00.946Z,3.70
2019-06-20T15:35:15.199Z,3.37
2019-06-20T15:37:41.337Z,3.37
2019-06-20T15:40:07.546Z,3.27
2019-06-20T15:42:33.738Z,3.40
2019-06-20T15:44:59.822Z,3.52
2019-06-20T15:47:25.993Z,3.75
2019-06-20T15:49:52.468Z,4.00
2019-06-20T15:52:19.042Z,3.80
2019-06-20T15:54:45.022Z,4.08
2019-06-20T15:57:11.359Z,3.33
2019-06-20T15:59:37.203Z,3.70
2019-06-20T16:02:03.589Z,3.50
2019-06-20T16:04:29.459Z,4.12
2019-06-20T16:06:55.394Z,3.75
2019-06-20T16:09:21.650Z,3.55
2019-06-20T16:11:47.889Z,3.70
2019-06-20T16:14:13.809Z,3.62
2019-06-20T16:16:39.865Z,3.87
2019-06-20T16:19:05.727Z,3.60
2019-06-20T16:21:31.709Z,3.65
2019-06-20T16:23:57.663Z,3.02
2019-06-20T16:26:23.842Z,3.10
2019-06-20T16:28:50.371Z,3.33
2019-06-20T16:31:26.447Z,3.58
2019-06-20T16:33:44.866Z,3.55
2019-06-20T16:36:12.983Z,3.35
2019-06-20T16:38:38.847Z,3.37
2019-06-20T16:41:05.673Z,3.50
2019-06-20T16:43:31.510Z,3.60
2019-06-20T16:45:57.681Z,3.42
2019-06-20T16:48:24.232Z,3.10
2019-06-20T16:50:50.282Z,3.17
2019-06-20T16:53:16.275Z,3.12
2019-06-20T16:55:42.842Z,3.15
2019-06-20T16:58:09.463Z,3.20
2019-06-20T17:00:35.762Z,3.60
2019-06-20T17:03:02.727Z,3.25
2019-06-20T17:05:29.070Z,3.62
2019-06-20T17:07:55.108Z,3.58
2019-06-20T17:10:21.233Z,4.05
2019-06-20T17:12:47.241Z,4.12
2019-06-20T17:15:13.210Z,3.77
2019-06-20T17:17:39.693Z,3.85
2019-06-20T17:20:06.344Z,4.15
2019-06-20T17:22:32.209Z,4.15
2019-06-20T17:24:58.525Z,3.62
2019-06-20T17:27:25.389Z,4.30
2019-06-20T17:29:52.177Z,4.10
2019-06-20T17:32:18.118Z,4.50
2019-06-20T17:34:44.106Z,4.65
2019-06-20T17:37:10.200Z,4.72
2019-06-20T17:39:36.618Z,4.60
2019-06-20T17:42:02.610Z,4.97
2019-06-20T17:44:28.594Z,5.10
2019-06-20T17:46:54.839Z,4.90
2019-06-20T17:49:21.301Z,4.90
2019-06-20T17:51:48.833Z,5.90
2019-06-20T17:54:15.818Z,5.00
2019-06-20T17:56:42.492Z,5.12
2019-06-20T17:59:08.480Z,7.22
2019-06-20T18:01:36.099Z,9.30
2019-06-20T18:04:13.271Z,6.47
2019-06-20T18:06:30.824Z,9.13
2019-06-20T18:08:56.666Z,5.60
2019-06-20T18:11:22.556Z,4.60
2019-06-20T18:13:48.499Z,4.72
2019-06-20T18:16:24.554Z,4.95
2019-06-20T18:18:42.478Z,5.53
2019-06-20T18:21:08.856Z,9.90
2019-06-20T18:23:35.498Z,8.13
2019-06-20T18:26:01.745Z,4.83
2019-06-20T18:28:27.600Z,5.00
2019-06-20T18:30:53.546Z,5.42
2019-06-20T18:33:19.518Z,4.75
2019-06-20T18:35:45.797Z,4.85
2019-06-20T18:38:11.737Z,5.12
2019-06-20T18:40:37.740Z,5.08
2019-06-20T18:43:04.031Z,4.83
2019-06-20T18:45:30.239Z,5.33
2019-06-20T18:47:56.098Z,6.22
2019-06-20T18:50:22.147Z,6.00
2019-06-20T18:52:52.518Z,6.03
2019-06-20T18:55:20.250Z,6.80
2019-06-20T18:57:46.919Z,7.40
2019-06-20T19:00:13.408Z,6.55
2019-06-20T19:02:40.151Z,7.12
2019-06-20T19:05:07.375Z,6.92
2019-06-20T19:07:33.747Z,6.75
2019-06-20T19:09:59.580Z,7.50
2019-06-20T19:12:25.486Z,7.08
2019-06-20T19:14:51.428Z,7.22
2019-06-20T19:17:17.273Z,7.92
2019-06-20T19:19:43.221Z,8.95
2019-06-20T19:22:10.078Z,8.08
2019-06-20T19:24:37.068Z,7.53
2019-06-20T19:27:04.117Z,9.75
2019-06-20T19:29:30.081Z,10.48
2019-06-20T19:31:56.049Z,9.83
2019-06-20T19:34:23.091Z,9.98
2019-06-20T19:36:49.106Z,10.40
2019-06-20T19:39:14.938Z,13.40
2019-06-20T19:41:41.177Z,14.58
2019-06-20T19:44:07.124Z,14.07
2019-06-20T19:46:33.062Z,12.75
2019-06-20T19:48:59.570Z,11.63
2019-06-20T19:51:25.520Z,11.65
2019-06-20T19:53:52.024Z,11.90
2019-06-20T19:56:18.347Z,11.57
2019-06-20T19:58:45.393Z,11.18
2019-06-20T20:01:11.309Z,10.53
2019-06-20T20:03:38.084Z,11.20
2019-06-20T20:06:04.411Z,12.23
2019-06-20T20:08:30.594Z,15.03
2019-06-20T20:10:56.797Z,13.08
2019-06-20T20:13:22.730Z,13.15
2019-06-20T20:15:49.389Z,13.13
2019-06-20T20:18:16.046Z,12.05
2019-06-20T20:20:46.488Z,12.98
2019-06-20T20:23:11.695Z,13.53
2019-06-20T20:25:38.337Z,12.33
2019-06-20T20:28:04.171Z,15.93
2019-06-20T20:30:30.102Z,15.80
2019-06-20T20:32:56.077Z,15.63
2019-06-20T20:35:34.855Z,15.45
2019-06-20T20:37:49.681Z,14.05
2019-06-20T20:40:15.761Z,15.25
2019-06-20T20:42:41.586Z,14.35
2019-06-20T20:45:07.637Z,15.38
2019-06-20T20:47:33.781Z,14.23
2019-06-20T20:49:59.765Z,15.70
2019-06-20T20:52:25.711Z,14.83
2019-06-20T20:54:51.597Z,19.30
2019-06-20T20:57:17.490Z,21.42
2019-06-20T20:59:43.330Z,23.40
2019-06-20T21:02:09.311Z,22.87
2019-06-20T21:04:35.169Z,24.07
2019-06-20T21:07:01.000Z,21.60
2019-06-20T21:09:26.886Z,21.33
2019-06-20T21:11:52.731Z,19.23
2019-06-20T21:14:18.601Z,19.82
2019-06-20T21:16:44.886Z,18.65
2019-06-20T21:19:11.171Z,19.37
2019-06-20T21:21:37.403Z,20.40
2019-06-20T21:24:03.398Z,20.92
2019-06-20T21:26:31.099Z,20.97
2019-06-20T21:28:57.313Z,18.92
2019-06-20T21:31:23.554Z,20.27
2019-06-20T21:33:49.819Z,20.40
2019-06-20T21:36:15.731Z,20.70
2019-06-20T21:38:41.980Z,20.35
2019-06-20T21:41:07.826Z,21.93
2019-06-20T21:43:33.753Z,20.40
2019-06-20T21:45:59.874Z,20.95
2019-06-20T21:48:25.814Z,22.55
2019-06-20T21:50:52.146Z,21.05
2019-06-20T21:53:18.134Z,22.17
2019-06-20T21:55:44.087Z,22.20
2019-06-20T21:58:10.117Z,20.88
2019-06-20T22:00:39.792Z,22.67
2019-06-20T22:03:06.338Z,22.07
2019-06-20T22:05:32.269Z,22.25
2019-06-20T22:07:58.663Z,21.87
2019-06-20T22:10:24.554Z,20.50
2019-06-20T22:12:50.482Z,21.70
2019-06-20T22:15:16.474Z,21.23
2019-06-20T22:17:42.674Z,21.70
2019-06-20T22:20:09.126Z,19.57
2019-06-20T22:22:35.528Z,19.70
2019-06-20T22:25:02.149Z,19.90
2019-06-20T22:27:28.035Z,20.40
2019-06-20T22:29:53.901Z,20.60
2019-06-20T22:32:19.821Z,19.50
2019-06-20T22:34:46.694Z,19.37
2019-06-20T22:37:12.938Z,18.52
2019-06-20T22:39:38.885Z,18.32
2019-06-20T22:42:05.086Z,18.42
2019-06-20T22:44:31.339Z,18.52
2019-06-20T22:46:57.275Z,17.48
2019-06-20T22:49:23.761Z,18.07
2019-06-20T22:51:49.767Z,16.70
2019-06-20T22:54:16.261Z,17.75
2019-06-20T22:56:42.561Z,16.10
2019-06-20T22:59:08.782Z,16.27
2019-06-20T23:01:34.715Z,18.15
2019-06-20T23:04:00.665Z,17.85
2019-06-20T23:06:26.529Z,17.10
2019-06-20T23:08:52.791Z,19.32
2019-06-20T23:11:18.626Z,18.52
2019-06-20T23:13:45.385Z,17.50
2019-06-20T23:16:11.504Z,18.87
2019-06-20T23:18:37.335Z,18.23
2019-06-20T23:21:04.934Z,18.02
2019-06-20T23:23:31.122Z,18.62
2019-06-20T23:25:59.352Z,16.77
2019-06-20T23:28:25.482Z,17.25
2019-06-20T23:30:51.462Z,16.67
2019-06-20T23:33:17.960Z,18.60
2019-06-20T23:35:44.199Z,19.30
2019-06-20T23:38:10.117Z,19.42
2019-06-20T23:40:36.153Z,19.75
2019-06-20T23:43:02.298Z,19.80
2019-06-20T23:45:28.845Z,20.85
2019-06-20T23:47:54.808Z,20.92
2019-06-20T23:50:21.011Z,19.95
2019-06-20T23:52:52.255Z,20.97
2019-06-20T23:55:18.195Z,20.17
2019-06-20T23:57:44.286Z,21.15
